Pagrindinis puslapis
METAR-TAF:

METAR-TAF

Oro uostai :

Davidas, Panama

platuma: 08-24N, ilguma: 082-25W, Aukštis: 29 m

Dabartinis oras

Ataskaita buvo paskelbta 1 valandą ir 59 minutes, ne 23:00 UTC
Vėjas 10 kt iš Pietvakarių
Temperatūra 31°C
Drėgmė 59%
Slėgis 1006 hPa
Matomumas 10 km arba daugiau
Mažai debesys ne aukštis 3000 ft

METAR: MPDA 282300Z 22010KT 9999 FEW030 31/22 Q1006

Laikas: 19:59 (00:59 UTC)

Prognozė

Ataskaita buvo paskelbta 7 valandos ir 59 minutes, ne 17:00 UTC
Prognozė galioja nuo 28 metu 18 UTC su 29 metu 06 UTC
Vėjas 6 kt iš Pietų
Matomumas 10 km arba daugiau
Mažai debesys ne aukštis 2000 ft
Laikinai
nuo 28 metu 20 UTC su 28 metu 24 UTC
Vėjas 3 kt iš Šiaurės

TAF: MPDA 281700Z 2818/2906 19006KT 9999 FEW020 TEMPO 2820/2824 35003KT

Orai ataskaitas ir orų prognozės (METAR, TAF).

turimą stotys yra geltonos ir raudonos taškus žemėlapyje.

Perkelti pele per norėdami pamatyti stoties vardą.

Tada spustelėkite, norėdami matyti oro stebėjimo ir prognozės.

Norėdami pakeisti žemėlapį: spustelėkite ant žalios mygtukų su juodo kryžiaus žemyn,; žalią mygtuką su brūkšneliu, jei norite nutolinti; arba žalių rodyklių gretimoms žemėlapius.


METAR-TAF: